createdAt,value
2022-07-27T00:00:03.618Z,72.20
2022-07-27T00:01:03.682Z,72.30
2022-07-27T00:02:03.963Z,72.60
2022-07-27T00:03:03.392Z,72.40
2022-07-27T00:04:03.711Z,72.30
2022-07-27T00:05:03.438Z,72.30
2022-07-27T00:06:03.393Z,72.09
2022-07-27T00:07:03.867Z,72.09
2022-07-27T00:08:03.517Z,72.00
2022-07-27T00:09:03.716Z,72.20
2022-07-27T00:10:03.805Z,72.20
2022-07-27T00:11:03.557Z,71.90
2022-07-27T00:12:04.115Z,72.09
2022-07-27T00:13:04.228Z,72.09
2022-07-27T00:14:04.127Z,72.09
2022-07-27T00:15:04.332Z,71.90
2022-07-27T00:16:04.565Z,72.03
2022-07-27T00:17:03.851Z,71.80
2022-07-27T00:18:03.465Z,71.39
2022-07-27T00:19:03.239Z,71.50
2022-07-27T00:20:03.239Z,71.63
2022-07-27T00:21:03.556Z,71.43
2022-07-27T00:22:03.917Z,71.33
2022-07-27T00:23:04.284Z,71.23
2022-07-27T00:24:03.887Z,71.33
2022-07-27T00:25:04.302Z,71.43
2022-07-27T00:26:03.997Z,71.63
2022-07-27T00:27:03.510Z,71.33
2022-07-27T00:28:03.876Z,71.43
2022-07-27T00:29:03.522Z,71.63
2022-07-27T00:30:03.838Z,71.63
2022-07-27T00:31:03.942Z,71.43
2022-07-27T00:32:03.719Z,72.03
2022-07-27T00:33:04.110Z,71.93
2022-07-27T00:34:03.702Z,71.53
2022-07-27T00:35:04.013Z,71.63
2022-07-27T00:36:03.843Z,71.33
2022-07-27T00:37:04.359Z,71.13
2022-07-27T00:38:04.418Z,71.03
2022-07-27T00:39:04.426Z,70.83
2022-07-27T00:40:04.120Z,70.83
2022-07-27T00:41:04.261Z,71.03
2022-07-27T00:42:03.550Z,70.73
2022-07-27T00:43:03.957Z,70.53
2022-07-27T00:44:03.698Z,70.46
2022-07-27T00:45:03.965Z,70.66
2022-07-27T00:46:04.571Z,70.66
2022-07-27T00:47:03.626Z,70.46
2022-07-27T00:48:04.660Z,70.66
2022-07-27T00:49:04.366Z,70.76
2022-07-27T00:50:03.832Z,70.66
2022-07-27T00:51:04.437Z,70.76
2022-07-27T00:52:03.607Z,70.56
2022-07-27T00:53:03.971Z,70.36
2022-07-27T00:54:04.037Z,70.76
2022-07-27T00:55:03.996Z,70.76
2022-07-27T00:56:03.730Z,70.66
2022-07-27T00:57:04.136Z,70.36
2022-07-27T00:58:03.987Z,70.06
2022-07-27T00:59:03.967Z,70.26
2022-07-27T01:00:04.026Z,70.19
2022-07-27T01:01:03.873Z,70.50
2022-07-27T01:02:03.370Z,70.70
2022-07-27T01:03:08.814Z,70.70
2022-07-27T01:04:03.128Z,70.59
2022-07-27T01:05:03.486Z,70.39
2022-07-27T01:06:03.122Z,70.39
2022-07-27T01:07:03.760Z,70.39
2022-07-27T01:08:03.821Z,70.29
2022-07-27T01:09:03.988Z,70.39
2022-07-27T01:10:03.978Z,71.09
2022-07-27T01:11:03.482Z,70.70
2022-07-27T01:12:02.710Z,70.89
2022-07-27T01:13:03.139Z,70.06
2022-07-27T01:14:02.809Z,69.96
2022-07-27T01:15:03.074Z,70.26
2022-07-27T01:16:03.005Z,70.19
2022-07-27T01:17:02.675Z,70.19
2022-07-27T01:18:03.247Z,70.19
2022-07-27T01:19:03.251Z,70.09
2022-07-27T01:20:03.406Z,70.19
2022-07-27T01:21:03.039Z,70.19
2022-07-27T01:22:03.327Z,70.09
2022-07-27T01:23:02.730Z,70.09
2022-07-27T01:24:03.015Z,70.39
2022-07-27T01:25:03.215Z,70.29
2022-07-27T01:26:02.771Z,70.39
2022-07-27T01:27:03.910Z,70.50
2022-07-27T01:28:03.906Z,70.19
2022-07-27T01:29:03.951Z,70.29
2022-07-27T01:30:03.704Z,70.29
2022-07-27T01:31:03.910Z,70.19
2022-07-27T01:32:03.290Z,69.89
2022-07-27T01:33:02.859Z,69.89
2022-07-27T01:34:03.116Z,70.29
2022-07-27T01:35:02.896Z,70.29
2022-07-27T01:36:02.897Z,70.59
2022-07-27T01:37:03.969Z,69.79
2022-07-27T01:38:04.114Z,69.59
2022-07-27T01:39:03.686Z,69.69
2022-07-27T01:40:04.052Z,69.49
2022-07-27T01:41:03.516Z,69.59
2022-07-27T01:42:03.615Z,69.49
2022-07-27T01:43:03.145Z,69.49
2022-07-27T01:44:03.594Z,69.69
2022-07-27T01:45:03.629Z,69.79
2022-07-27T01:46:03.716Z,69.99
2022-07-27T01:47:03.193Z,70.09
2022-07-27T01:48:02.739Z,69.99
2022-07-27T01:49:03.034Z,70.09
2022-07-27T01:50:03.325Z,70.12
2022-07-27T01:51:02.897Z,70.32
2022-07-27T01:52:03.955Z,70.09
2022-07-27T01:53:03.692Z,70.23
2022-07-27T01:54:03.658Z,70.23
2022-07-27T01:55:03.724Z,70.32
2022-07-27T01:56:03.430Z,70.23
2022-07-27T01:57:03.292Z,70.23
2022-07-27T01:58:02.770Z,70.53
2022-07-27T01:59:03.459Z,70.63
2022-07-27T02:00:03.544Z,71.03
2022-07-27T02:01:03.455Z,70.63
2022-07-27T02:02:03.855Z,70.23
2022-07-27T02:03:03.440Z,70.43
2022-07-27T02:04:03.795Z,70.43
2022-07-27T02:05:03.499Z,70.53
2022-07-27T02:06:03.836Z,70.46
2022-07-27T02:07:04.160Z,70.56
2022-07-27T02:08:03.567Z,70.66
2022-07-27T02:09:03.951Z,70.36
2022-07-27T02:10:03.735Z,70.46
2022-07-27T02:11:03.678Z,70.46
2022-07-27T02:12:03.096Z,70.66
2022-07-27T02:13:22.314Z,70.46
2022-07-27T02:14:03.725Z,70.86
2022-07-27T02:15:05.556Z,70.26
2022-07-27T02:16:03.370Z,70.16
2022-07-27T02:17:03.193Z,70.56
2022-07-27T02:18:03.694Z,70.66
2022-07-27T02:19:04.715Z,70.59
2022-07-27T02:20:03.666Z,70.70
2022-07-27T02:21:03.843Z,70.50
2022-07-27T02:22:04.470Z,70.59
2022-07-27T02:23:04.181Z,70.50
2022-07-27T02:24:04.383Z,70.50
2022-07-27T02:25:03.392Z,70.50
2022-07-27T02:26:03.982Z,70.50
2022-07-27T02:27:03.923Z,70.70
2022-07-27T02:28:03.851Z,70.59
2022-07-27T02:29:03.443Z,70.59
2022-07-27T02:30:03.719Z,70.79
2022-07-27T02:31:03.460Z,70.93
2022-07-27T02:32:03.834Z,71.13
2022-07-27T02:33:04.291Z,70.93
2022-07-27T02:34:04.254Z,70.93
2022-07-27T02:35:18.330Z,70.93
2022-07-27T02:36:04.100Z,71.13
2022-07-27T02:37:03.555Z,71.03
2022-07-27T02:38:03.853Z,70.93
2022-07-27T02:39:03.498Z,70.83
2022-07-27T02:40:03.846Z,71.06
2022-07-27T02:41:04.170Z,70.96
2022-07-27T02:42:03.810Z,71.06
2022-07-27T02:43:04.384Z,71.16
2022-07-27T02:44:04.398Z,71.06
2022-07-27T02:45:03.943Z,71.26
2022-07-27T02:46:04.319Z,71.06
2022-07-27T02:47:03.898Z,70.86
2022-07-27T02:48:04.095Z,70.96
2022-07-27T02:49:04.379Z,71.06
2022-07-27T02:50:04.225Z,71.06
2022-07-27T02:51:04.206Z,70.76
2022-07-27T02:52:04.226Z,71.00
2022-07-27T02:53:04.582Z,71.40
2022-07-27T02:54:04.371Z,71.50
2022-07-27T02:55:04.222Z,71.50
2022-07-27T02:56:04.608Z,71.80
2022-07-27T02:57:03.570Z,71.40
2022-07-27T02:58:03.971Z,71.60
2022-07-27T02:59:02.949Z,71.50
2022-07-27T03:00:03.952Z,71.50
2022-07-27T03:01:03.807Z,71.40
2022-07-27T03:02:03.359Z,71.64
2022-07-27T03:03:03.579Z,71.64
2022-07-27T03:04:03.156Z,71.73
2022-07-27T03:05:03.575Z,71.84
2022-07-27T03:06:03.044Z,71.84
2022-07-27T03:07:03.380Z,72.04
2022-07-27T03:08:03.194Z,71.94
2022-07-27T03:09:03.432Z,72.24
2022-07-27T03:10:03.776Z,72.04
2022-07-27T03:11:03.408Z,72.17
2022-07-27T03:12:02.973Z,72.27
2022-07-27T03:13:03.041Z,72.27
2022-07-27T03:14:02.778Z,72.58
2022-07-27T03:15:03.156Z,72.58
2022-07-27T03:16:02.801Z,72.38
2022-07-27T03:17:03.501Z,72.47
2022-07-27T03:18:03.307Z,72.58
2022-07-27T03:19:03.632Z,72.78
2022-07-27T03:20:03.249Z,72.58
2022-07-27T03:21:03.093Z,72.47
2022-07-27T03:22:02.813Z,72.58
2022-07-27T03:23:02.743Z,72.58
2022-07-27T03:24:02.493Z,72.67
2022-07-27T03:25:03.066Z,72.47
2022-07-27T03:26:02.599Z,72.17
2022-07-27T03:27:02.281Z,72.78
2022-07-27T03:28:04.411Z,72.78
2022-07-27T03:29:02.751Z,72.47
2022-07-27T03:30:03.130Z,72.17
2022-07-27T03:31:02.753Z,72.58
2022-07-27T03:32:03.156Z,72.71
2022-07-27T03:33:03.444Z,72.61
2022-07-27T03:34:03.162Z,73.01
2022-07-27T03:35:02.853Z,72.98
2022-07-27T03:36:02.914Z,72.31
2022-07-27T03:37:03.995Z,73.22
2022-07-27T03:38:03.826Z,72.78
2022-07-27T03:39:06.145Z,72.88
2022-07-27T03:40:03.743Z,72.81
2022-07-27T03:41:04.098Z,73.01
2022-07-27T03:42:03.507Z,73.01
2022-07-27T03:43:03.120Z,73.22
2022-07-27T03:44:03.455Z,73.32
2022-07-27T03:45:03.276Z,73.32
2022-07-27T03:46:03.798Z,73.32
2022-07-27T03:47:03.099Z,73.72
2022-07-27T03:48:02.771Z,73.92
2022-07-27T03:49:03.005Z,73.96
2022-07-27T03:50:03.309Z,73.85
2022-07-27T03:51:03.200Z,73.85
2022-07-27T03:52:03.528Z,73.85
2022-07-27T03:53:03.464Z,74.05
2022-07-27T03:54:03.451Z,74.05
2022-07-27T03:55:03.272Z,74.26
2022-07-27T03:56:03.450Z,74.56
2022-07-27T03:57:03.884Z,74.56
2022-07-27T03:58:03.630Z,74.05
2022-07-27T03:59:03.942Z,74.36
2022-07-27T04:00:03.469Z,74.16
2022-07-27T04:01:03.551Z,74.46
2022-07-27T04:02:04.123Z,74.66
2022-07-27T04:03:03.601Z,74.46
2022-07-27T04:04:03.597Z,74.90
2022-07-27T04:05:03.745Z,75.00
2022-07-27T04:06:03.965Z,75.40
2022-07-27T04:07:04.180Z,75.31
2022-07-27T04:08:03.963Z,75.31
2022-07-27T04:09:08.303Z,75.20
2022-07-27T04:10:03.960Z,75.31
2022-07-27T04:11:04.297Z,75.31
2022-07-27T04:12:03.807Z,75.31
2022-07-27T04:13:02.824Z,75.71
2022-07-27T04:14:03.616Z,75.51
2022-07-27T04:15:03.366Z,75.81
2022-07-27T04:16:03.276Z,75.81
2022-07-27T04:17:04.333Z,75.31
2022-07-27T04:18:04.446Z,75.44
2022-07-27T04:19:03.987Z,75.54
2022-07-27T04:20:04.234Z,75.71
2022-07-27T04:21:04.263Z,75.60
2022-07-27T04:22:03.593Z,75.74
2022-07-27T04:23:03.245Z,75.74
2022-07-27T04:24:03.669Z,75.64
2022-07-27T04:25:03.455Z,75.54
2022-07-27T04:26:03.481Z,75.84
2022-07-27T04:27:03.959Z,75.34
2022-07-27T04:28:03.637Z,75.84
2022-07-27T04:29:03.946Z,75.64
2022-07-27T04:30:09.011Z,75.64
2022-07-27T04:31:03.560Z,75.74
2022-07-27T04:32:04.137Z,75.95
2022-07-27T04:33:03.886Z,76.45
2022-07-27T04:34:04.503Z,76.25
2022-07-27T04:35:04.047Z,76.25
2022-07-27T04:36:03.144Z,76.65
2022-07-27T04:37:03.961Z,76.65
2022-07-27T04:38:03.679Z,76.75
2022-07-27T04:39:03.585Z,76.95
2022-07-27T04:40:04.016Z,76.86
2022-07-27T04:41:03.808Z,76.86
2022-07-27T04:42:04.219Z,76.99
2022-07-27T04:43:04.033Z,76.86
2022-07-27T04:44:04.220Z,76.99
2022-07-27T04:45:04.055Z,77.06
2022-07-27T04:46:04.356Z,76.65
2022-07-27T04:47:03.588Z,76.75
2022-07-27T04:48:03.246Z,76.95
2022-07-27T04:49:03.726Z,77.29
2022-07-27T04:50:03.482Z,77.39
2022-07-27T04:51:03.267Z,77.19
2022-07-27T04:52:03.793Z,77.29
2022-07-27T04:53:03.997Z,77.39
2022-07-27T04:54:03.769Z,78.00
2022-07-27T04:55:04.090Z,77.50
2022-07-27T04:56:03.708Z,77.80
2022-07-27T04:57:03.431Z,77.50
2022-07-27T04:58:03.176Z,77.29
2022-07-27T04:59:03.366Z,77.29
2022-07-27T05:00:03.195Z,77.50
2022-07-27T05:01:03.788Z,77.50
2022-07-27T05:02:02.724Z,77.39
2022-07-27T05:03:02.695Z,77.19
2022-07-27T05:04:03.334Z,77.50
2022-07-27T05:05:03.259Z,77.80
2022-07-27T05:06:02.776Z,77.60
2022-07-27T05:07:02.748Z,77.70
2022-07-27T05:08:02.610Z,78.00
2022-07-27T05:09:02.281Z,77.90
2022-07-27T05:10:02.647Z,78.20
2022-07-27T05:11:02.183Z,78.10
2022-07-27T05:12:02.595Z,78.00
2022-07-27T05:13:03.049Z,78.00
2022-07-27T05:14:02.815Z,78.00
2022-07-27T05:15:03.128Z,78.20
2022-07-27T05:16:03.189Z,78.10
2022-07-27T05:17:03.023Z,78.20
2022-07-27T05:18:03.473Z,78.00
2022-07-27T05:19:02.873Z,77.90
2022-07-27T05:20:02.631Z,77.80
2022-07-27T05:21:03.203Z,78.00
2022-07-27T05:22:02.723Z,77.90
2022-07-27T05:23:02.973Z,77.90
2022-07-27T05:24:02.811Z,78.10
2022-07-27T05:25:02.524Z,77.90
2022-07-27T05:26:02.934Z,77.80
2022-07-27T05:27:02.469Z,78.00
2022-07-27T05:28:02.832Z,78.10
2022-07-27T05:29:02.261Z,78.06
2022-07-27T05:30:02.367Z,77.76
2022-07-27T05:31:02.824Z,78.27
2022-07-27T05:32:02.745Z,78.17
2022-07-27T05:33:02.370Z,77.76
2022-07-27T05:34:02.549Z,77.66
2022-07-27T05:35:02.927Z,77.76
2022-07-27T05:36:02.734Z,77.62
2022-07-27T05:37:03.491Z,77.73
2022-07-27T05:38:02.977Z,77.42
2022-07-27T05:39:03.319Z,77.62
2022-07-27T05:40:03.195Z,77.39
2022-07-27T05:41:02.957Z,77.59
2022-07-27T05:42:03.440Z,77.28
2022-07-27T05:43:03.729Z,76.48
2022-07-27T05:44:03.609Z,77.28
2022-07-27T05:45:03.354Z,77.08
2022-07-27T05:46:03.777Z,76.78
2022-07-27T05:47:02.656Z,76.64
2022-07-27T05:48:02.809Z,76.84
2022-07-27T05:49:02.751Z,76.24
2022-07-27T05:50:02.649Z,76.00
2022-07-27T05:51:02.701Z,75.90
2022-07-27T05:52:03.177Z,76.61
2022-07-27T05:53:02.931Z,75.90
2022-07-27T05:54:02.626Z,75.90
2022-07-27T05:55:03.478Z,76.07
2022-07-27T05:56:02.926Z,75.96
2022-07-27T05:57:03.414Z,75.16
2022-07-27T05:58:03.216Z,74.86
2022-07-27T05:59:06.948Z,74.96
2022-07-27T06:00:03.722Z,74.73
2022-07-27T06:01:03.772Z,74.82
2022-07-27T06:02:02.705Z,75.13
2022-07-27T06:03:02.554Z,75.49
2022-07-27T06:04:02.923Z,74.58
2022-07-27T06:05:02.889Z,75.09
2022-07-27T06:06:02.709Z,73.44
2022-07-27T06:07:02.992Z,72.94
2022-07-27T06:08:02.892Z,72.94
2022-07-27T06:09:03.131Z,72.74
2022-07-27T06:10:03.054Z,73.24
2022-07-27T06:11:02.679Z,73.85
2022-07-27T06:12:03.443Z,73.21
2022-07-27T06:13:03.057Z,73.00
2022-07-27T06:14:03.418Z,73.71
2022-07-27T06:15:02.858Z,73.51
2022-07-27T06:16:03.227Z,73.68
2022-07-27T06:17:02.703Z,72.87
2022-07-27T06:18:02.770Z,72.77
2022-07-27T06:19:02.836Z,72.17
2022-07-27T06:20:02.567Z,72.74
2022-07-27T06:21:02.679Z,73.14
2022-07-27T06:22:03.258Z,71.73
2022-07-27T06:23:03.191Z,72.30
2022-07-27T06:24:02.916Z,71.40
2022-07-27T06:25:03.350Z,71.20
2022-07-27T06:26:03.177Z,71.60
2022-07-27T06:27:02.638Z,71.56
2022-07-27T06:28:02.591Z,71.66
2022-07-27T06:29:02.913Z,71.43
2022-07-27T06:30:02.581Z,70.03
2022-07-27T06:31:02.429Z,69.82
2022-07-27T06:32:02.856Z,70.53
2022-07-27T06:33:02.581Z,69.73
2022-07-27T06:34:02.467Z,69.22
2022-07-27T06:35:02.889Z,69.53
2022-07-27T06:36:02.431Z,69.69
2022-07-27T06:37:02.620Z,70.09
2022-07-27T06:38:02.589Z,70.16
2022-07-27T06:39:02.842Z,70.36
2022-07-27T06:40:02.707Z,69.66
2022-07-27T06:41:03.145Z,69.23
2022-07-27T06:42:03.206Z,68.92
2022-07-27T06:43:03.298Z,68.92
2022-07-27T06:44:03.199Z,68.49
2022-07-27T06:45:03.060Z,67.39
2022-07-27T06:46:03.370Z,67.19
2022-07-27T06:47:03.462Z,67.29
2022-07-27T06:48:03.554Z,67.59
2022-07-27T06:49:03.499Z,67.99
2022-07-27T06:50:02.926Z,66.86
2022-07-27T06:51:03.438Z,67.66
2022-07-27T06:52:03.076Z,66.75
2022-07-27T06:53:02.890Z,66.86
2022-07-27T06:54:03.050Z,65.42
2022-07-27T06:55:03.021Z,66.52
2022-07-27T06:56:02.755Z,65.83
2022-07-27T06:57:03.215Z,66.82
2022-07-27T06:58:03.070Z,65.72
2022-07-27T06:59:02.892Z,66.42
2022-07-27T07:00:02.974Z,66.19
2022-07-27T07:01:02.933Z,65.69
2022-07-27T07:02:03.338Z,65.39
2022-07-27T07:03:03.046Z,64.89
2022-07-27T07:04:03.500Z,64.16
2022-07-27T07:05:03.230Z,63.36
2022-07-27T07:06:02.947Z,64.06
2022-07-27T07:07:07.112Z,63.17
2022-07-27T07:08:03.609Z,62.37
2022-07-27T07:09:03.786Z,62.46
2022-07-27T07:10:03.315Z,62.56
2022-07-27T07:11:03.656Z,64.16
2022-07-27T07:12:03.207Z,64.56
2022-07-27T07:13:02.853Z,62.26
2022-07-27T07:14:02.691Z,61.66
2022-07-27T07:15:03.151Z,62.56
2022-07-27T07:16:02.926Z,62.86
2022-07-27T07:17:03.349Z,63.96
2022-07-27T07:18:03.109Z,61.57
2022-07-27T07:19:03.438Z,63.26
2022-07-27T07:20:03.241Z,61.63
2022-07-27T07:21:03.066Z,61.93
2022-07-27T07:22:03.446Z,61.43
2022-07-27T07:23:03.261Z,61.24
2022-07-27T07:24:03.512Z,60.44
2022-07-27T07:25:03.564Z,60.53
2022-07-27T07:26:03.018Z,60.93
2022-07-27T07:27:03.441Z,62.23
2022-07-27T07:28:03.211Z,60.53
2022-07-27T07:29:03.732Z,60.24
2022-07-27T07:30:03.700Z,60.83
2022-07-27T07:31:03.600Z,62.13
2022-07-27T07:32:04.036Z,61.13
2022-07-27T07:33:03.525Z,61.33
2022-07-27T07:34:03.931Z,60.33
2022-07-27T07:35:03.479Z,59.23
2022-07-27T07:36:13.226Z,60.44
2022-07-27T07:37:03.231Z,58.76
2022-07-27T07:38:03.024Z,60.96
2022-07-27T07:39:02.802Z,61.36
2022-07-27T07:40:25.317Z,60.33
2022-07-27T07:41:03.168Z,61.33
2022-07-27T07:42:03.468Z,60.93
2022-07-27T07:43:03.273Z,59.81
2022-07-27T07:44:03.654Z,60.71
2022-07-27T07:45:03.339Z,57.51
2022-07-27T07:46:03.202Z,59.01
2022-07-27T07:47:03.823Z,58.61
2022-07-27T07:48:03.135Z,58.01
2022-07-27T07:49:03.680Z,59.21
2022-07-27T07:50:03.530Z,59.31
2022-07-27T07:51:03.431Z,58.81
2022-07-27T07:52:03.964Z,57.01
2022-07-27T07:53:03.489Z,58.91
2022-07-27T07:54:03.385Z,60.11
2022-07-27T07:55:03.597Z,58.98
2022-07-27T07:56:03.753Z,57.39
2022-07-27T07:57:03.075Z,58.58
2022-07-27T07:58:02.821Z,59.08
2022-07-27T07:59:02.970Z,58.28
2022-07-27T08:00:03.032Z,59.15
2022-07-27T08:01:02.780Z,57.15
2022-07-27T08:02:03.485Z,55.76
2022-07-27T08:03:03.798Z,54.66
2022-07-27T08:04:03.712Z,55.46
2022-07-27T08:05:03.781Z,56.76
2022-07-27T08:06:03.439Z,56.76
2022-07-27T08:07:02.820Z,56.16
2022-07-27T08:08:03.259Z,57.95
2022-07-27T08:09:03.250Z,58.15
2022-07-27T08:10:03.075Z,57.35
2022-07-27T08:11:02.809Z,59.22
2022-07-27T08:12:02.888Z,57.63
2022-07-27T08:13:03.266Z,56.63
2022-07-27T08:14:03.113Z,59.02
2022-07-27T08:15:03.239Z,56.90
2022-07-27T08:16:03.130Z,56.40
2022-07-27T08:17:02.612Z,55.01
2022-07-27T08:18:02.968Z,54.51
2022-07-27T08:19:02.852Z,55.63
2022-07-27T08:20:03.001Z,55.43
2022-07-27T08:21:03.184Z,56.23
2022-07-27T08:22:02.897Z,55.04
2022-07-27T08:23:03.364Z,55.73
2022-07-27T08:24:02.986Z,55.83
2022-07-27T08:25:03.006Z,55.43
2022-07-27T08:26:07.512Z,58.72
2022-07-27T08:27:03.325Z,58.72
2022-07-27T08:28:03.770Z,59.22
2022-07-27T08:29:11.353Z,55.83
2022-07-27T08:30:03.753Z,57.13
2022-07-27T08:31:08.958Z,56.93
2022-07-27T08:32:03.400Z,56.63
2022-07-27T08:33:03.843Z,56.73
2022-07-27T08:34:03.617Z,56.33
2022-07-27T08:35:03.307Z,56.36
2022-07-27T08:36:03.834Z,58.38
2022-07-27T08:37:03.261Z,60.08
2022-07-27T08:38:02.964Z,58.25
2022-07-27T08:39:02.692Z,57.35
2022-07-27T08:41:02.957Z,58.18
2022-07-27T08:42:02.877Z,57.15
2022-07-27T08:43:02.977Z,56.66
2022-07-27T08:44:03.370Z,56.26
2022-07-27T08:45:03.184Z,57.56
2022-07-27T08:46:03.090Z,58.03
2022-07-27T08:47:03.713Z,59.62
2022-07-27T08:48:03.661Z,58.89
2022-07-27T08:49:03.495Z,56.08
2022-07-27T08:50:04.087Z,55.88
2022-07-27T08:51:03.516Z,55.85
2022-07-27T08:52:03.348Z,55.95
2022-07-27T08:53:03.458Z,53.64
2022-07-27T08:54:03.437Z,52.74
2022-07-27T08:55:03.189Z,52.34
2022-07-27T08:56:03.170Z,52.74
2022-07-27T08:57:03.670Z,52.44
2022-07-27T08:58:04.256Z,51.45
2022-07-27T08:59:03.831Z,50.57
2022-07-27T09:00:03.672Z,52.57
2022-07-27T09:01:03.571Z,54.16
2022-07-27T09:02:03.672Z,52.76
2022-07-27T09:03:02.973Z,52.97
2022-07-27T09:04:03.413Z,53.86
2022-07-27T09:05:03.200Z,53.96
2022-07-27T09:06:03.008Z,53.06
2022-07-27T09:07:02.406Z,54.26
2022-07-27T09:08:02.568Z,53.86
2022-07-27T09:09:02.744Z,54.75
2022-07-27T09:10:02.371Z,54.06
2022-07-27T09:11:02.371Z,55.53
2022-07-27T09:12:02.905Z,55.53
2022-07-27T09:13:02.739Z,55.33
2022-07-27T09:14:03.095Z,55.80
2022-07-27T09:15:02.933Z,55.00
2022-07-27T09:16:20.138Z,52.69
2022-07-27T09:17:46.746Z,54.97
2022-07-27T09:18:03.020Z,55.85
2022-07-27T09:19:03.226Z,52.26
2022-07-27T09:20:03.123Z,52.26
2022-07-27T09:21:03.599Z,52.26
2022-07-27T09:22:03.386Z,53.73
2022-07-27T09:23:03.555Z,51.65
2022-07-27T09:24:06.861Z,53.14
2022-07-27T09:25:02.896Z,53.51
2022-07-27T09:26:10.879Z,51.52
2022-07-27T09:27:02.631Z,49.63
2022-07-27T09:28:02.461Z,47.28
2022-07-27T09:29:02.902Z,48.66
2022-07-27T09:30:02.737Z,50.45
2022-07-27T09:31:02.500Z,51.05
2022-07-27T09:32:02.863Z,51.95
2022-07-27T09:33:02.718Z,51.42
2022-07-27T09:34:03.129Z,46.86
2022-07-27T09:35:02.897Z,47.67
2022-07-27T09:36:03.011Z,49.46
2022-07-27T09:37:05.496Z,48.96
2022-07-27T09:38:03.769Z,49.76
2022-07-27T09:39:03.906Z,48.74
2022-07-27T09:40:03.761Z,51.32
2022-07-27T09:41:03.709Z,52.61
2022-07-27T09:42:03.210Z,51.79
2022-07-27T09:43:14.491Z,50.81
2022-07-27T09:44:30.759Z,51.87
2022-07-27T09:45:03.051Z,52.47
2022-07-27T09:46:02.911Z,52.17
2022-07-27T09:47:03.356Z,48.67
2022-07-27T09:48:03.225Z,49.37
2022-07-27T09:49:03.063Z,49.46
2022-07-27T09:50:03.410Z,46.89
2022-07-27T09:51:27.746Z,48.20
2022-07-27T09:52:03.801Z,46.71
2022-07-27T09:53:19.737Z,48.90
2022-07-27T09:54:03.517Z,47.13
2022-07-27T09:55:03.838Z,47.53
2022-07-27T09:56:03.232Z,48.90
2022-07-27T09:57:03.018Z,50.28
2022-07-27T09:58:02.565Z,48.47
2022-07-27T09:59:02.939Z,48.97
2022-07-27T10:00:02.568Z,49.37
2022-07-27T10:01:02.872Z,47.86
2022-07-27T10:02:03.500Z,49.05
2022-07-27T10:03:03.241Z,46.17
2022-07-27T10:04:03.675Z,49.27
2022-07-27T10:05:03.580Z,46.59
2022-07-27T10:06:03.410Z,47.50
2022-07-27T10:07:06.300Z,48.72
2022-07-27T10:08:03.522Z,49.61
2022-07-27T10:09:03.363Z,48.72
2022-07-27T10:10:03.379Z,49.41
2022-07-27T10:11:04.166Z,47.45
2022-07-27T10:12:04.076Z,49.24
2022-07-27T10:13:04.029Z,49.04
2022-07-27T10:14:04.145Z,48.65
2022-07-27T10:15:03.775Z,48.66
2022-07-27T10:16:04.025Z,49.36
2022-07-27T10:17:03.615Z,49.96
2022-07-27T10:18:06.843Z,49.26
2022-07-27T10:19:03.679Z,49.26
2022-07-27T10:20:03.239Z,48.17
2022-07-27T10:21:03.615Z,49.07
2022-07-27T10:22:04.117Z,50.65
2022-07-27T10:23:04.003Z,48.86
2022-07-27T10:24:03.749Z,49.29
2022-07-27T10:25:04.107Z,48.99
2022-07-27T10:26:03.918Z,50.98
2022-07-27T10:27:04.415Z,50.08
2022-07-27T10:28:04.084Z,49.08
2022-07-27T10:29:04.579Z,48.39
2022-07-27T10:30:04.083Z,50.18
2022-07-27T10:31:04.458Z,49.49
2022-07-27T10:32:04.026Z,49.19
2022-07-27T10:33:03.703Z,48.10
2022-07-27T10:34:03.533Z,46.50
2022-07-27T10:35:03.902Z,49.80
2022-07-27T10:36:03.719Z,47.82
2022-07-27T10:37:04.247Z,47.32
2022-07-27T10:38:04.007Z,47.13
2022-07-27T10:39:03.709Z,48.69
2022-07-27T10:40:04.155Z,44.81
2022-07-27T10:41:03.872Z,47.70
2022-07-27T10:42:03.995Z,50.18
2022-07-27T10:43:03.914Z,46.70
2022-07-27T10:44:03.549Z,47.00
2022-07-27T10:45:04.051Z,46.11
2022-07-27T10:46:03.870Z,48.39
2022-07-27T10:47:04.263Z,49.29
2022-07-27T10:48:03.868Z,48.69
2022-07-27T10:49:04.283Z,47.77
2022-07-27T10:50:03.654Z,46.88
2022-07-27T10:51:04.108Z,49.66
2022-07-27T10:52:04.695Z,49.86
2022-07-27T10:53:04.502Z,47.45
2022-07-27T10:54:12.386Z,47.47
2022-07-27T10:55:04.642Z,48.66
2022-07-27T10:56:04.346Z,47.17
2022-07-27T10:57:03.586Z,48.89
2022-07-27T10:58:03.967Z,49.58
2022-07-27T10:59:03.745Z,50.05
2022-07-27T11:00:09.437Z,51.75
2022-07-27T11:01:04.117Z,48.14
2022-07-27T11:02:03.961Z,47.08
2022-07-27T11:03:03.377Z,45.89
2022-07-27T11:04:03.632Z,46.88
2022-07-27T11:05:03.392Z,46.78
2022-07-27T11:06:21.916Z,47.16
2022-07-27T11:08:35.371Z,47.45
2022-07-27T11:10:04.628Z,48.72
2022-07-27T11:11:03.497Z,47.73
2022-07-27T11:12:03.327Z,48.20
2022-07-27T11:13:09.646Z,47.41
2022-07-27T11:14:03.582Z,48.08
2022-07-27T11:15:03.364Z,46.49
2022-07-27T11:16:23.558Z,44.21
2022-07-27T11:17:25.561Z,44.90
2022-07-27T11:18:05.310Z,43.14
2022-07-27T11:19:04.010Z,44.43
2022-07-27T11:20:03.939Z,42.77
2022-07-27T11:21:04.652Z,45.05
2022-07-27T11:22:04.817Z,44.65
2022-07-27T11:23:49.545Z,44.95
2022-07-27T11:24:03.129Z,46.83
2022-07-27T11:25:02.984Z,47.43
2022-07-27T11:26:03.457Z,46.61
2022-07-27T11:27:03.119Z,47.61
2022-07-27T11:28:03.771Z,46.61
2022-07-27T11:29:03.807Z,43.93
2022-07-27T11:30:03.635Z,43.54
2022-07-27T11:31:03.947Z,44.65
2022-07-27T11:32:03.537Z,44.53
2022-07-27T11:33:04.061Z,46.61
2022-07-27T11:34:03.744Z,48.20
2022-07-27T11:35:06.540Z,45.20
2022-07-27T11:36:04.098Z,44.51
2022-07-27T11:37:03.794Z,45.60
2022-07-27T11:38:03.318Z,45.79
2022-07-27T11:39:03.070Z,48.85
2022-07-27T11:40:20.081Z,46.15
2022-07-27T11:41:18.351Z,44.07
2022-07-27T11:42:09.105Z,44.27
2022-07-27T11:43:03.904Z,44.67
2022-07-27T11:44:03.648Z,45.26
2022-07-27T11:45:03.849Z,44.09
2022-07-27T11:46:03.693Z,43.91
2022-07-27T11:47:04.115Z,44.23
2022-07-27T11:48:03.551Z,44.85
2022-07-27T11:49:08.018Z,44.65
2022-07-27T11:50:03.775Z,46.36
2022-07-27T11:51:03.401Z,45.86
2022-07-27T11:52:03.277Z,44.67
2022-07-27T11:53:03.786Z,46.19
2022-07-27T11:54:03.441Z,46.88
2022-07-27T11:55:03.315Z,46.78
2022-07-27T11:56:03.791Z,44.59
2022-07-27T11:57:03.515Z,46.20
2022-07-27T11:58:04.012Z,46.41
2022-07-27T11:59:03.809Z,46.50
2022-07-27T12:00:04.094Z,47.00
2022-07-27T12:01:03.915Z,46.41
2022-07-27T12:02:04.026Z,48.86
2022-07-27T12:03:03.580Z,47.97
2022-07-27T12:04:03.305Z,45.68
2022-07-27T12:05:03.456Z,45.41
2022-07-27T12:06:03.375Z,46.38
2022-07-27T12:07:03.141Z,46.08
2022-07-27T12:08:03.173Z,49.54
2022-07-27T12:09:02.945Z,47.95
2022-07-27T12:10:02.735Z,47.43
2022-07-27T12:11:03.216Z,45.74
2022-07-27T12:12:02.945Z,46.34
2022-07-27T12:13:03.165Z,43.54
2022-07-27T12:14:02.997Z,45.72
2022-07-27T12:15:11.679Z,46.59
2022-07-27T12:16:03.347Z,44.31
2022-07-27T12:17:03.057Z,42.21
2022-07-27T12:19:03.085Z,41.60
2022-07-27T12:20:03.088Z,41.39
2022-07-27T12:21:03.275Z,41.99
2022-07-27T12:22:03.063Z,42.66
2022-07-27T12:23:03.890Z,42.36
2022-07-27T12:24:04.119Z,43.55
2022-07-27T12:25:03.811Z,42.07
2022-07-27T12:26:03.632Z,43.16
2022-07-27T12:27:06.673Z,43.65
2022-07-27T12:28:02.833Z,43.26
2022-07-27T12:29:03.198Z,41.97
2022-07-27T12:30:02.850Z,43.65
2022-07-27T12:31:03.392Z,43.65
2022-07-27T12:32:03.046Z,42.36
2022-07-27T12:33:03.510Z,41.60
2022-07-27T12:34:06.434Z,43.10
2022-07-27T12:35:03.724Z,45.57
2022-07-27T12:36:03.661Z,45.68
2022-07-27T12:37:04.128Z,41.22
2022-07-27T12:38:03.011Z,42.63
2022-07-27T12:39:03.548Z,44.41
2022-07-27T12:40:02.879Z,43.93
2022-07-27T12:41:03.423Z,45.12
2022-07-27T12:42:03.152Z,43.93
2022-07-27T12:43:03.592Z,43.24
2022-07-27T12:44:04.137Z,43.24
2022-07-27T12:45:03.755Z,42.07
2022-07-27T12:46:03.725Z,44.18
2022-07-27T12:47:03.591Z,44.97
2022-07-27T12:48:03.189Z,44.77
2022-07-27T12:49:03.677Z,43.68
2022-07-27T12:50:03.499Z,45.86
2022-07-27T12:51:03.261Z,45.74
2022-07-27T12:52:03.142Z,45.15
2022-07-27T12:53:03.629Z,45.72
2022-07-27T12:54:04.124Z,44.23
2022-07-27T12:55:03.900Z,44.73
2022-07-27T12:56:03.694Z,43.84